Time;durP1;ratioP1;P1;durP2;ratioP2;P2;SDS_P1;SDS_P2;PMS_P1;PMS_P2;Temp;Humidity;BMP_temperature;BMP_pressure;BME280_temperature;BME280_humidity;BME280_pressure;Samples;Min_cycle;Max_cycle;Signal;HPM_P1;HPM_P2
2022/06/27 00:00:56;;;;;;;3.08;2.78;;;;;;;29.34;46.62;101509.13;4147902;28;20099;-68
2022/06/27 00:02:59;;;;;;;2.75;2.55;;;;;;;29.33;46.58;101513.13;4149304;28;20080;-66
2022/06/27 00:05:01;;;;;;;2.80;2.60;;;;;;;29.33;46.45;101515.94;4152138;28;20034;-66
2022/06/27 00:07:03;;;;;;;2.90;2.60;;;;;;;29.33;46.70;101520.75;4151767;28;20042;-67
2022/06/27 00:09:05;;;;;;;3.15;2.85;;;;;;;29.33;46.74;101526.38;4151324;28;20034;-67
2022/06/27 00:11:06;;;;;;;3.35;3.05;;;;;;;29.34;46.76;101523.22;4151510;28;20444;-66
2022/06/27 00:13:08;;;;;;;3.03;2.72;;;;;;;29.35;46.64;101522.06;4153563;28;20100;-68
2022/06/27 00:15:13;;;;;;;3.50;2.88;;;;;;;29.33;46.35;101513.13;4153954;28;20038;-68
2022/06/27 00:17:17;;;;;;;3.50;3.20;;;;;;;29.33;46.63;101509.47;4152290;28;20054;-67
2022/06/27 00:19:19;;;;;;;3.25;2.95;;;;;;;29.36;46.71;101509.63;4153327;28;20076;-68
2022/06/27 00:21:23;;;;;;;2.60;2.40;;;;;;;29.35;46.70;101507.97;4153289;28;20096;-66
2022/06/27 00:23:46;;;;;;;3.20;2.90;;;;;;;29.36;46.79;101509.63;4153152;28;20038;-67
2022/06/27 00:25:50;;;;;;;3.40;2.72;;;;;;;29.37;46.46;101511.31;4152338;28;20033;-68
2022/06/27 00:27:52;;;;;;;2.75;2.47;;;;;;;29.37;46.67;101511.31;4150715;28;20088;-66
2022/06/27 00:29:53;;;;;;;2.92;2.67;;;;;;;29.30;46.67;101501.66;4152953;28;20042;-68
2022/06/27 00:31:56;;;;;;;3.30;3.00;;;;;;;29.35;46.59;101507.97;4152994;28;20084;-68
2022/06/27 00:34:02;;;;;;;2.83;2.40;;;;;;;29.35;46.67;101507.97;4151198;28;20064;-68
2022/06/27 00:36:11;;;;;;;2.55;2.35;;;;;;;29.32;46.69;101507.78;4151032;28;20083;-68
2022/06/27 00:38:13;;;;;;;3.95;2.67;;;;;;;29.33;46.93;101515.94;4151682;28;20092;-66
2022/06/27 00:40:17;;;;;;;3.35;3.05;;;;;;;29.34;46.67;101516.75;4150328;28;20038;-68
2022/06/27 00:42:18;;;;;;;2.85;2.53;;;;;;;29.33;46.70;101521.56;4150770;28;20042;-68
2022/06/27 00:44:34;;;;;;;3.53;3.00;;;;;;;29.31;46.92;101526.69;4150316;28;20120;-68
2022/06/27 00:46:36;;;;;;;2.60;2.40;;;;;;;29.31;46.88;101523.88;4150652;28;20046;-67
2022/06/27 00:48:37;;;;;;;3.00;2.70;;;;;;;29.28;46.77;101512.44;4150403;28;20096;-67
2022/06/27 00:50:39;;;;;;;2.83;2.63;;;;;;;29.29;46.66;101526.19;4150702;28;20042;-68
2022/06/27 00:52:41;;;;;;;2.70;2.50;;;;;;;29.29;46.81;101531.84;4150244;28;20123;-68
2022/06/27 00:54:45;;;;;;;2.85;2.65;;;;;;;29.29;46.81;101531.00;4150609;28;20110;-68
2022/06/27 00:56:48;;;;;;;3.05;2.75;;;;;;;29.28;46.98;101524.53;4150341;28;20111;-68
2022/06/27 00:58:49;;;;;;;3.03;2.83;;;;;;;29.26;46.79;101515.56;4148519;28;20054;-66
2022/06/27 01:00:51;;;;;;;3.00;2.70;;;;;;;29.22;47.01;101508.91;4150505;28;20046;-66
2022/06/27 01:02:52;;;;;;;2.67;2.47;;;;;;;29.20;46.87;101516.03;4150377;28;20475;-67
2022/06/27 01:04:53;;;;;;;2.55;2.35;;;;;;;29.29;47.08;101539.47;4150473;28;20034;-67
2022/06/27 01:06:56;;;;;;;2.72;2.53;;;;;;;29.28;47.04;101535.81;4149967;28;20037;-68
2022/06/27 01:08:58;;;;;;;2.67;2.47;;;;;;;29.28;47.10;101538.63;4149813;28;20042;-68
2022/06/27 01:11:02;;;;;;;2.60;2.40;;;;;;;29.22;46.86;101520.19;4149469;28;20042;-67
2022/06/27 01:13:04;;;;;;;2.70;2.50;;;;;;;29.28;46.76;101538.63;4149690;28;20046;-68
2022/06/27 01:15:06;;;;;;;2.75;2.55;;;;;;;29.26;46.98;101529.66;4150291;28;20045;-67
2022/06/27 01:17:10;;;;;;;2.85;2.58;;;;;;;29.30;46.84;101532.66;4149958;28;20473;-67
2022/06/27 01:19:16;;;;;;;2.70;2.50;;;;;;;29.29;46.95;101537.47;4149666;28;20045;-68
2022/06/27 01:21:25;;;;;;;3.83;2.78;;;;;;;29.29;47.03;101533.81;4150051;28;20115;-68
2022/06/27 01:23:26;;;;;;;3.20;2.88;;;;;;;29.26;47.02;101524.00;4149666;28;20115;-68
2022/06/27 01:25:28;;;;;;;2.75;2.55;;;;;;;29.29;46.97;101537.47;4149309;28;20108;-67
2022/06/27 01:27:35;;;;;;;2.65;2.45;;;;;;;29.27;47.12;101539.75;4149807;28;20477;-68
2022/06/27 01:29:37;;;;;;;2.58;2.38;;;;;;;29.31;47.15;101545.59;4144416;28;20042;-68
2022/06/27 01:31:39;;;;;;;2.60;2.40;;;;;;;29.29;46.90;101545.94;4150069;28;20030;-68
2022/06/27 01:33:44;;;;;;;3.90;2.50;;;;;;;29.29;47.14;101540.28;4149650;28;20096;-68
2022/06/27 01:35:46;;;;;;;2.97;2.78;;;;;;;29.28;46.76;101544.28;4147293;28;20037;-68
2022/06/27 01:37:47;;;;;;;3.30;2.65;;;;;;;29.29;47.22;101540.28;4149487;28;20041;-68
2022/06/27 01:39:49;;;;;;;3.00;2.53;;;;;;;29.26;47.25;101542.91;4149513;28;20100;-68
2022/06/27 01:42:04;;;;;;;2.63;2.42;;;;;;;29.28;46.94;101541.44;4149746;28;20100;-67
2022/06/27 01:44:05;;;;;;;2.70;2.40;;;;;;;29.30;47.25;101550.41;4149397;28;20041;-68
2022/06/27 01:46:09;;;;;;;3.00;2.65;;;;;;;29.29;47.21;101557.19;4149512;28;20034;-68
2022/06/27 01:48:11;;;;;;;2.72;2.45;;;;;;;29.31;47.13;101568.16;4149017;28;20076;-68
2022/06/27 01:50:15;;;;;;;3.08;2.70;;;;;;;29.30;47.23;101567.31;4149467;28;20030;-67
2022/06/27 01:52:17;;;;;;;3.22;2.20;;;;;;;29.30;46.84;101567.31;4149767;28;20038;-69
2022/06/27 01:54:22;;;;;;;2.58;2.35;;;;;;;29.29;47.33;101562.84;4148769;28;20112;-68
2022/06/27 01:56:26;;;;;;;2.95;2.38;;;;;;;29.29;47.18;101568.47;4149655;28;20100;-68
2022/06/27 01:58:27;;;;;;;2.72;2.53;;;;;;;29.30;47.14;101566.47;4149203;28;20037;-66
2022/06/27 02:00:33;;;;;;;2.20;2.00;;;;;;;29.30;47.36;101567.31;4149598;28;20034;-67
2022/06/27 02:02:34;;;;;;;2.90;2.70;;;;;;;29.30;47.04;101567.31;4149425;28;20046;-68
2022/06/27 02:04:37;;;;;;;3.13;2.22;;;;;;;29.31;47.08;101579.41;4149370;28;20037;-68
2022/06/27 02:06:39;;;;;;;2.88;2.30;;;;;;;29.30;47.24;101572.94;4149909;28;20038;-68
2022/06/27 02:08:45;;;;;;;2.40;2.20;;;;;;;29.26;47.04;101566.28;4148715;28;20493;-68
2022/06/27 02:10:47;;;;;;;2.55;2.28;;;;;;;29.29;47.15;101567.66;4149111;28;20042;-68
2022/06/27 02:12:50;;;;;;;2.50;2.30;;;;;;;29.29;47.32;101576.09;4149336;28;20099;-68
2022/06/27 02:14:53;;;;;;;2.55;2.35;;;;;;;29.28;47.25;101580.09;4149466;28;20042;-67
2022/06/27 02:16:55;;;;;;;2.58;2.38;;;;;;;29.31;47.28;101585.06;4149050;28;20104;-67
2022/06/27 02:18:56;;;;;;;2.42;2.22;;;;;;;29.30;47.17;101578.59;4149055;28;20096;-68
2022/06/27 02:20:58;;;;;;;2.10;2.00;;;;;;;29.29;47.29;101582.56;4148892;28;20041;-68
2022/06/27 02:23:00;;;;;;;2.53;2.33;;;;;;;29.29;47.11;101582.56;4149376;28;20037;-69
2022/06/27 02:25:02;;;;;;;2.75;2.50;;;;;;;29.29;47.46;101578.91;4147878;28;20050;-66
2022/06/27 02:27:04;;;;;;;2.90;2.70;;;;;;;29.27;47.24;101576.41;4149096;28;20092;-66
2022/06/27 02:29:06;;;;;;;4.80;2.85;;;;;;;29.24;47.48;101574.25;4148246;28;20046;-67
2022/06/27 02:31:11;;;;;;;3.13;2.50;;;;;;;29.25;47.33;101564.63;4148864;28;20096;-67
2022/06/27 02:33:12;;;;;;;3.15;2.42;;;;;;;29.29;47.30;101582.56;4145755;28;20077;-67
2022/06/27 02:35:19;;;;;;;2.83;2.63;;;;;;;29.28;47.19;101580.91;4148623;28;20092;-67
2022/06/27 02:37:20;;;;;;;2.60;2.40;;;;;;;29.29;47.48;101576.94;4148287;28;20096;-68
2022/06/27 02:39:25;;;;;;;2.60;2.40;;;;;;;29.27;47.37;101576.41;4148789;28;20540;-68
2022/06/27 02:41:27;;;;;;;;;;;;;;;29.27;47.53;101584.03;4149057;28;20042;-68
2022/06/27 02:43:29;;;;;;;2.60;2.40;;;;;;;29.23;47.17;101569.78;4149100;28;20361;-68
2022/06/27 02:45:32;;;;;;;2.53;2.28;;;;;;;29.30;47.39;101574.94;4148398;28;20104;-67
2022/06/27 02:47:38;;;;;;;2.75;2.55;;;;;;;29.28;47.52;101580.09;4148418;28;20042;-68
2022/06/27 02:49:42;;;;;;;2.58;2.38;;;;;;;29.29;47.42;101585.38;4148800;28;20100;-68
2022/06/27 02:51:55;;;;;;;2.65;2.45;;;;;;;29.28;47.42;101574.44;4148829;28;20038;-67
2022/06/27 02:54:07;;;;;;;2.58;2.38;;;;;;;29.28;47.36;101582.91;4148385;28;20084;-68
2022/06/27 02:56:12;;;;;;;2.50;2.30;;;;;;;29.29;47.43;101578.91;4148177;28;20084;-68
2022/06/27 02:58:21;;;;;;;3.13;2.72;;;;;;;29.24;47.52;101562.16;4147005;28;20046;-68
2022/06/27 03:00:24;;;;;;;5.47;2.72;;;;;;;29.29;47.36;101576.09;4148131;28;20076;-68
2022/06/27 03:02:28;;;;;;;2.78;2.50;;;;;;;29.29;47.50;101571.28;4148128;28;20470;-68
2022/06/27 03:04:30;;;;;;;3.00;2.45;;;;;;;29.28;47.29;101561.19;4148246;28;20038;-68
2022/06/27 03:06:33;;;;;;;3.17;2.40;;;;;;;29.29;47.45;101567.66;4147878;28;20100;-67
2022/06/27 03:08:44;;;;;;;2.63;2.42;;;;;;;29.27;47.25;101570.75;4148482;28;20428;-67
2022/06/27 03:10:45;;;;;;;2.63;2.42;;;;;;;29.28;47.45;101555.53;4145935;28;20501;-66
2022/06/27 03:12:47;;;;;;;2.92;2.63;;;;;;;29.28;47.16;101558.38;4148233;28;20041;-67
2022/06/27 03:14:48;;;;;;;2.75;2.45;;;;;;;29.20;47.44;101533.78;4148434;28;20088;-67
2022/06/27 03:16:50;;;;;;;2.60;2.40;;;;;;;29.27;47.36;101559.50;4148578;28;20046;-68
2022/06/27 03:18:52;;;;;;;3.30;2.80;;;;;;;29.27;47.58;101565.13;4148578;28;20412;-67
2022/06/27 03:20:55;;;;;;;2.60;2.40;;;;;;;29.27;47.37;101556.66;4148252;28;20037;-68
2022/06/27 03:22:59;;;;;;;2.63;2.42;;;;;;;29.25;47.58;101553.38;4148728;28;20100;-68
2022/06/27 03:25:01;;;;;;;2.60;2.40;;;;;;;29.27;47.38;101561.47;4148717;28;20033;-67
2022/06/27 03:27:02;;;;;;;2.47;2.28;;;;;;;29.24;47.60;101560.16;4148053;28;20038;-67
2022/06/27 03:29:04;;;;;;;2.60;2.40;;;;;;;29.28;47.22;101563.16;4148188;28;20041;-67
2022/06/27 03:31:05;;;;;;;2.70;2.50;;;;;;;29.27;47.58;101556.66;4148057;28;20045;-67
2022/06/27 03:33:07;;;;;;;2.50;2.20;;;;;;;29.28;47.40;101564.00;4148373;28;20045;-68
2022/06/27 03:35:08;;;;;;;2.63;2.40;;;;;;;29.28;47.40;101547.09;4148117;28;20536;-67
2022/06/27 03:37:10;;;;;;;3.08;2.38;;;;;;;29.07;47.31;101512.97;4150269;28;20421;-68
2022/06/27 03:39:11;;;;;;;2.65;2.45;;;;;;;29.27;47.52;101551.03;4151245;28;20482;-68
2022/06/27 03:41:15;;;;;;;2.53;2.33;;;;;;;29.27;47.40;101551.03;4151172;28;20046;-69
2022/06/27 03:43:20;;;;;;;2.85;2.58;;;;;;;29.28;47.56;101547.09;4151969;28;20088;-67
2022/06/27 03:45:24;;;;;;;2.95;2.70;;;;;;;29.28;47.44;101549.91;4151264;28;20088;-68
2022/06/27 03:47:28;;;;;;;2.70;2.50;;;;;;;29.28;47.39;101552.72;4151731;28;20100;-68
2022/06/27 03:51:50;;;;;;;2.30;2.20;;;;;;;29.28;47.45;101555.53;4152561;28;20096;-67
2022/06/27 03:53:52;;;;;;;3.40;2.28;;;;;;;29.28;47.46;101558.38;4151452;28;20104;-67
2022/06/27 03:55:53;;;;;;;2.78;2.58;;;;;;;29.28;47.61;101555.53;4151542;28;20225;-67
2022/06/27 03:57:57;;;;;;;2.50;2.30;;;;;;;29.28;47.44;101555.53;4151196;28;20107;-68
2022/06/27 04:00:01;;;;;;;2.30;2.10;;;;;;;29.26;47.48;101546.56;4150928;28;20042;-68
2022/06/27 04:02:02;;;;;;;3.40;3.10;;;;;;;29.28;47.21;101552.72;4151610;28;20045;-67
2022/06/27 04:04:12;;;;;;;2.92;2.40;;;;;;;29.28;47.15;101541.44;4151383;28;20033;-68
2022/06/27 04:06:13;;;;;;;2.67;2.35;;;;;;;29.28;47.08;101543.44;4150912;28;20046;-68
2022/06/27 04:08:18;;;;;;;2.65;2.42;;;;;;;29.28;47.36;101541.44;4151162;28;20076;-68
2022/06/27 04:10:19;;;;;;;2.67;2.38;;;;;;;29.28;47.53;101541.44;4150785;28;20445;-68
2022/06/27 04:12:21;;;;;;;2.70;2.50;;;;;;;29.28;47.37;101534.97;4150968;28;20096;-68
2022/06/27 04:14:22;;;;;;;2.78;2.58;;;;;;;29.28;47.49;101543.44;4151334;28;20540;-68
2022/06/27 04:16:23;;;;;;;2.65;2.28;;;;;;;29.24;47.54;101537.63;4150910;28;20037;-68
2022/06/27 04:18:25;;;;;;;2.70;2.50;;;;;;;29.27;47.34;101542.56;4150806;28;20042;-68
2022/06/27 04:20:26;;;;;;;2.65;2.45;;;;;;;29.27;47.29;101542.56;4149765;28;20050;-68
2022/06/27 04:22:28;;;;;;;2.70;2.50;;;;;;;29.22;47.18;101548.34;4151287;28;20034;-68
2022/06/27 04:24:29;;;;;;;2.55;2.35;;;;;;;29.27;47.47;101551.03;4150577;28;20042;-67
2022/06/27 04:26:31;;;;;;;3.30;2.50;;;;;;;29.24;47.29;101546.06;4151870;28;20034;-65
2022/06/27 04:28:36;;;;;;;3.05;2.75;;;;;;;29.27;47.38;101555.84;4150136;28;20042;-67
2022/06/27 04:30:39;;;;;;;3.13;2.83;;;;;;;29.28;47.26;101552.72;4150572;28;20116;-67
2022/06/27 04:32:41;;;;;;;3.55;2.47;;;;;;;29.28;47.53;101546.25;4150480;28;20100;-67
2022/06/27 04:34:43;;;;;;;2.72;2.53;;;;;;;29.28;47.52;101552.72;4150796;28;20426;-68
2022/06/27 04:36:45;;;;;;;2.60;2.40;;;;;;;29.25;47.52;101544.06;4150180;28;20444;-67
2022/06/27 04:38:49;;;;;;;2.65;2.45;;;;;;;29.28;47.51;101557.53;4150654;28;20168;-68
2022/06/27 04:40:53;;;;;;;3.08;2.80;;;;;;;29.27;47.39;101551.03;4150568;28;20433;-68
2022/06/27 04:42:56;;;;;;;2.90;2.22;;;;;;;29.28;47.37;101558.38;4150334;28;20038;-68
2022/06/27 04:44:58;;;;;;;2.80;2.60;;;;;;;29.28;47.26;101558.38;4150252;28;20092;-67
2022/06/27 04:47:22;;;;;;;2.88;2.67;;;;;;;29.28;47.32;101558.38;4150297;28;20046;-68
2022/06/27 04:49:24;;;;;;;2.70;2.33;;;;;;;29.27;47.24;101561.47;4149675;28;20166;-67
2022/06/27 04:51:26;;;;;;;2.47;2.28;;;;;;;29.28;47.39;101552.72;4150530;28;20523;-67
2022/06/27 04:53:28;;;;;;;2.13;1.98;;;;;;;29.28;47.50;101561.19;4150076;28;20037;-67
2022/06/27 04:55:30;;;;;;;2.80;2.60;;;;;;;29.27;47.51;101550.22;4150585;28;20425;-67
2022/06/27 04:57:39;;;;;;;3.03;2.72;;;;;;;29.25;47.26;101547.72;4150067;28;20448;-68
2022/06/27 04:59:40;;;;;;;2.78;2.58;;;;;;;29.28;47.29;101546.25;4149990;28;20092;-68
2022/06/27 05:01:42;;;;;;;2.50;2.30;;;;;;;29.27;47.38;101544.56;4150438;28;20038;-67
2022/06/27 05:03:43;;;;;;;2.53;2.33;;;;;;;29.26;47.28;101537.28;4149753;28;20097;-67
2022/06/27 05:05:45;;;;;;;2.60;2.30;;;;;;;29.24;47.20;101539.59;4150407;28;20112;-67
2022/06/27 05:07:46;;;;;;;3.35;2.90;;;;;;;29.28;47.40;101532.16;4149754;28;20041;-67
2022/06/27 05:09:48;;;;;;;2.70;2.50;;;;;;;29.27;47.39;101534.13;4150166;28;20042;-68
2022/06/27 05:12:00;;;;;;;;;;;;;;;;;;;;;
2022/06/27 05:14:02;;;;;;;2.90;2.60;;;;;;;29.28;47.40;101547.09;4146403;28;20046;-67
2022/06/27 05:16:04;;;;;;;2.58;2.38;;;;;;;29.24;47.22;101531.97;4150194;28;20042;-67
2022/06/27 05:18:06;;;;;;;2.50;2.30;;;;;;;29.27;47.20;101534.13;4164610;28;20041;-67
2022/06/27 05:20:08;;;;;;;2.67;2.47;;;;;;;29.18;47.24;101523.97;4150130;28;20485;-67
2022/06/27 05:22:10;;;;;;;3.00;2.67;;;;;;;29.25;47.13;101530.81;4150216;28;20527;-67
2022/06/27 05:24:11;;;;;;;3.40;2.50;;;;;;;29.27;47.01;101534.13;4150392;28;20045;-67
2022/06/27 05:26:13;;;;;;;2.83;2.63;;;;;;;29.22;47.12;101525.81;4150338;28;20037;-67
2022/06/27 05:28:14;;;;;;;2.55;2.35;;;;;;;29.27;47.50;101522.03;4150044;28;20046;-67
2022/06/27 05:30:21;;;;;;;2.67;2.45;;;;;;;29.27;47.19;101527.66;4150056;28;20041;-67
2022/06/27 05:32:25;;;;;;;2.67;2.47;;;;;;;29.23;47.29;101516.22;4149454;28;20456;-67
2022/06/27 05:34:26;;;;;;;3.28;2.65;;;;;;;29.27;47.23;101530.47;4149715;28;20104;-67
2022/06/27 05:36:28;;;;;;;2.30;2.10;;;;;;;29.27;47.12;101528.47;4149733;28;20034;-67
2022/06/27 05:38:33;;;;;;;3.20;2.60;;;;;;;29.26;47.41;101521.19;4150055;28;20446;-67
2022/06/27 05:40:41;;;;;;;3.25;2.63;;;;;;;29.28;47.32;101515.25;4149888;28;20493;-67
2022/06/27 05:42:43;;;;;;;2.78;2.58;;;;;;;29.27;47.04;101516.38;4149387;28;20100;-67
2022/06/27 05:44:44;;;;;;;2.58;2.35;;;;;;;29.25;47.03;101511.09;4149711;28;20092;-68
2022/06/27 05:46:46;;;;;;;3.00;2.30;;;;;;;29.26;47.16;101518.38;4149823;28;20037;-66
2022/06/27 05:48:47;;;;;;;2.78;2.53;;;;;;;29.27;46.99;101517.22;4149658;28;20076;-66
2022/06/27 05:50:56;;;;;;;3.63;2.60;;;;;;;29.25;47.08;101513.91;4144178;28;20042;-67
2022/06/27 05:52:59;;;;;;;2.33;2.13;;;;;;;29.26;47.03;101520.38;4149346;28;20131;-68
2022/06/27 05:55:05;;;;;;;2.83;2.15;;;;;;;29.26;47.11;101521.19;4149700;28;20088;-68
2022/06/27 05:57:11;;;;;;;3.38;2.53;;;;;;;29.26;47.38;101526.00;4149386;28;20076;-67
2022/06/27 05:59:13;;;;;;;2.97;2.67;;;;;;;29.23;47.28;101510.59;4148857;28;20088;-67
2022/06/27 06:01:14;;;;;;;2.50;2.30;;;;;;;29.26;47.14;101523.19;4149170;28;20077;-67
2022/06/27 06:03:16;;;;;;;2.80;2.60;;;;;;;29.25;47.27;101513.91;4149895;28;20049;-67
2022/06/27 06:05:17;;;;;;;2.40;2.20;;;;;;;29.25;47.05;101513.91;4149197;28;20116;-68
2022/06/27 06:07:22;;;;;;;2.65;2.45;;;;;;;29.21;47.36;101510.06;4149212;28;20115;-68
2022/06/27 06:09:24;;;;;;;2.40;2.20;;;;;;;29.25;47.52;101513.91;4148948;28;20433;-68
2022/06/27 06:11:32;;;;;;;2.67;2.47;;;;;;;29.25;47.08;101502.63;4149029;28;20096;-67
2022/06/27 06:13:34;;;;;;;2.47;2.28;;;;;;;29.25;47.11;101502.63;4148980;28;20046;-67
2022/06/27 06:15:38;;;;;;;2.42;2.22;;;;;;;29.25;47.31;101499.81;4149554;28;20429;-67
2022/06/27 06:17:40;;;;;;;2.80;2.60;;;;;;;29.24;47.13;101500.97;4148681;28;20112;-67
2022/06/27 06:19:41;;;;;;;2.20;2.00;;;;;;;29.24;47.29;101495.34;4149374;28;20100;-68
2022/06/27 06:21:48;;;;;;;3.35;2.40;;;;;;;29.24;47.11;101500.16;4149186;28;20038;-67
2022/06/27 06:23:52;;;;;;;2.40;2.20;;;;;;;29.15;47.04;101483.19;4148481;28;20092;-68
2022/06/27 06:25:53;;;;;;;2.88;2.47;;;;;;;29.24;47.15;101492.50;4146028;28;20033;-69
2022/06/27 06:28:01;;;;;;;2.30;2.10;;;;;;;29.24;47.10;101489.69;4148485;28;20045;-67
2022/06/27 06:30:03;;;;;;;2.67;2.45;;;;;;;29.21;47.08;101483.88;4148915;28;20038;-66
2022/06/27 06:32:05;;;;;;;2.78;2.55;;;;;;;29.24;47.11;101484.06;4148732;28;20436;-66
2022/06/27 06:34:09;;;;;;;2.30;2.10;;;;;;;29.24;47.28;101489.69;4149087;28;20565;-67
2022/06/27 06:36:11;;;;;;;2.47;2.28;;;;;;;29.25;47.10;101491.34;4148929;28;20042;-67
2022/06/27 06:38:13;;;;;;;2.33;2.13;;;;;;;29.24;47.45;101477.59;4148963;28;20096;-67
2022/06/27 06:40:17;;;;;;;2.33;2.13;;;;;;;29.23;47.15;101471.13;4148449;28;20115;-67
2022/06/27 06:42:19;;;;;;;2.30;2.10;;;;;;;29.24;47.31;101478.41;4148592;28;20042;-67
2022/06/27 06:44:22;;;;;;;2.35;2.15;;;;;;;29.25;47.25;101474.44;4148407;28;20042;-67
2022/06/27 06:46:24;;;;;;;2.33;2.13;;;;;;;29.25;47.19;101479.25;4147698;28;20045;-67
2022/06/27 06:48:32;;;;;;;2.40;2.20;;;;;;;29.20;47.22;101466.13;4148307;28;20038;-67
2022/06/27 06:50:33;;;;;;;2.45;2.25;;;;;;;29.15;47.31;101452.19;4148025;28;20107;-67
2022/06/27 06:52:38;;;;;;;2.50;2.30;;;;;;;29.22;47.44;101477.91;4148454;28;20037;-67
2022/06/27 06:54:42;;;;;;;2.65;2.42;;;;;;;29.21;47.20;101464.97;4147051;28;20464;-67
2022/06/27 06:56:52;;;;;;;4.10;2.35;;;;;;;29.18;47.36;101457.16;4148487;28;20112;-67
2022/06/27 06:58:58;;;;;;;2.40;2.20;;;;;;;29.16;47.25;101453.03;4148254;28;20042;-67
2022/06/27 07:01:01;;;;;;;2.42;2.28;;;;;;;29.24;47.49;101463.50;4148545;28;20539;-67
2022/06/27 07:03:03;;;;;;;3.05;2.40;;;;;;;29.24;47.43;101460.69;4148591;28;20470;-68
2022/06/27 07:05:08;;;;;;;2.35;2.15;;;;;;;29.23;47.50;101454.22;4148608;28;20473;-68
2022/06/27 07:07:14;;;;;;;2.50;2.30;;;;;;;29.23;47.55;101448.59;4148247;28;20451;-68
2022/06/27 07:09:18;;;;;;;2.50;2.30;;;;;;;29.23;47.55;101453.34;4147897;28;20046;-67
2022/06/27 07:11:21;;;;;;;2.47;2.28;;;;;;;29.17;47.30;101438.59;4148249;28;20034;-68
2022/06/27 07:13:25;;;;;;;2.55;2.35;;;;;;;29.22;47.41;101444.06;4148045;28;20495;-68
2022/06/27 07:15:26;;;;;;;2.80;2.17;;;;;;;29.23;47.40;101447.72;4148176;28;20038;-67
2022/06/27 07:17:29;;;;;;;2.22;2.03;;;;;;;29.19;47.22;101435.47;4148392;28;20100;-68
2022/06/27 07:19:30;;;;;;;2.83;2.63;;;;;;;29.22;47.15;101446.91;4148478;28;20049;-68
2022/06/27 07:21:34;;;;;;;3.50;2.50;;;;;;;29.23;47.42;101442.94;4147643;28;20037;-68
2022/06/27 07:23:36;;;;;;;2.83;2.55;;;;;;;29.17;47.46;101426.50;4147721;28;20107;-68
2022/06/27 07:25:37;;;;;;;2.70;2.20;;;;;;;29.20;47.43;101431.47;4148494;28;20053;-68
2022/06/27 07:27:44;;;;;;;2.42;2.22;;;;;;;29.16;47.37;101425.66;4147745;28;20540;-68
2022/06/27 07:29:48;;;;;;;2.65;2.45;;;;;;;29.18;47.75;101425.31;4148160;28;20428;-68
2022/06/27 07:31:50;;;;;;;2.35;2.15;;;;;;;29.23;47.32;101420.41;4148076;28;20033;-68
2022/06/27 07:33:54;;;;;;;2.80;2.35;;;;;;;29.22;47.37;101423.53;4148364;28;20026;-68
2022/06/27 07:35:55;;;;;;;2.00;1.90;;;;;;;29.22;47.60;101412.25;4148320;28;20115;-68
2022/06/27 07:37:57;;;;;;;2.45;2.25;;;;;;;29.21;47.47;101404.97;4147894;28;20069;-68
2022/06/27 07:40:01;;;;;;;2.83;2.60;;;;;;;29.21;47.36;101400.16;4148191;28;20481;-68
2022/06/27 07:42:03;;;;;;;2.10;1.90;;;;;;;29.21;47.44;101394.50;4148024;28;20094;-68
2022/06/27 07:44:05;;;;;;;2.40;2.20;;;;;;;29.22;47.41;101392.53;4147905;28;20041;-68
2022/06/27 07:46:07;;;;;;;2.53;2.00;;;;;;;29.22;47.81;101392.53;4148284;28;20037;-68
2022/06/27 07:48:08;;;;;;;2.40;2.20;;;;;;;29.21;47.54;101388.88;4147599;28;20038;-68
2022/06/27 07:50:11;;;;;;;2.10;2.00;;;;;;;29.17;47.49;101370.94;4147962;28;20072;-68
2022/06/27 07:52:12;;;;;;;2.55;2.20;;;;;;;29.21;47.29;101386.06;4147918;28;20113;-68
2022/06/27 07:54:14;;;;;;;3.10;2.47;;;;;;;29.21;47.53;101380.41;4147905;28;20088;-68
2022/06/27 07:56:18;;;;;;;2.00;1.90;;;;;;;29.21;47.56;101377.59;4147827;28;20088;-68
2022/06/27 07:58:30;;;;;;;3.05;1.98;;;;;;;29.19;47.34;101363.03;4147604;28;20050;-68
2022/06/27 08:00:33;;;;;;;2.35;2.15;;;;;;;29.21;47.43;101371.13;4147744;28;20509;-68
2022/06/27 08:02:35;;;;;;;2.33;2.13;;;;;;;29.21;47.44;101369.16;4147791;28;20042;-68
2022/06/27 08:04:37;;;;;;;2.40;2.20;;;;;;;29.22;47.53;101367.16;4148061;28;20092;-68
2022/06/27 08:06:39;;;;;;;2.63;2.42;;;;;;;29.20;47.57;101352.56;4147765;28;20096;-68
2022/06/27 08:08:43;;;;;;;2.25;2.05;;;;;;;29.21;47.57;101355.06;4147934;28;20042;-68
2022/06/27 08:10:47;;;;;;;2.33;2.13;;;;;;;29.19;47.64;101357.38;4146828;28;20367;-68
2022/06/27 08:12:48;;;;;;;2.42;2.22;;;;;;;29.21;47.43;101354.22;4148034;28;20038;-68
2022/06/27 08:14:50;;;;;;;2.00;1.80;;;;;;;29.20;47.42;101344.94;4147857;28;20034;-68
2022/06/27 08:16:52;;;;;;;2.78;2.47;;;;;;;29.21;47.50;101338.13;4147471;28;20425;-68
2022/06/27 08:18:53;;;;;;;2.97;2.38;;;;;;;29.19;47.36;101334.84;4147308;28;20046;-68
2022/06/27 08:20:55;;;;;;;2.10;2.00;;;;;;;29.19;47.45;101340.47;4147842;28;20076;-68
2022/06/27 08:22:56;;;;;;;2.10;1.90;;;;;;;29.20;47.34;101342.13;4147036;28;20050;-68
2022/06/27 08:24:58;;;;;;;2.10;1.90;;;;;;;29.21;47.67;101349.41;4151003;28;20041;-68
2022/06/27 08:27:03;;;;;;;3.20;2.15;;;;;;;29.21;47.45;101354.22;4150999;28;20046;-68
2022/06/27 08:29:05;;;;;;;;;;;;;;;29.19;47.55;101357.38;4149264;28;20038;-68
2022/06/27 08:31:12;;;;;;;2.40;2.20;;;;;;;29.24;47.43;101347.94;4150804;28;19913;-68
2022/06/27 08:33:14;;;;;;;1.92;1.83;;;;;;;29.24;47.38;101360.03;4150549;28;20084;-68
2022/06/27 08:35:15;;;;;;;2.50;2.13;;;;;;;29.23;47.40;101351.91;4150629;28;20200;-68
2022/06/27 08:37:23;;;;;;;2.40;2.20;;;;;;;29.21;47.64;101340.13;4150621;28;20042;-68
2022/06/27 08:39:25;;;;;;;2.17;1.98;;;;;;;29.19;47.62;101340.47;4148750;28;20077;-68
2022/06/27 08:41:26;;;;;;;2.30;2.10;;;;;;;29.20;47.42;101341.28;4150435;28;20481;-68
2022/06/27 08:43:31;;;;;;;2.53;2.33;;;;;;;29.19;47.76;101346.09;4150387;28;20034;-68
2022/06/27 08:45:32;;;;;;;2.33;2.08;;;;;;;29.19;47.31;101346.09;4150043;28;20103;-68
2022/06/27 08:47:41;;;;;;;2.20;2.00;;;;;;;29.16;47.38;101341.13;4149846;28;20042;-68
2022/06/27 08:49:43;;;;;;;2.38;2.17;;;;;;;29.16;47.63;101329.84;4150502;28;20042;-68
2022/06/27 08:51:45;;;;;;;2.03;1.88;;;;;;;29.19;47.55;101334.84;4151110;28;20425;-68
2022/06/27 08:53:49;;;;;;;2.20;2.00;;;;;;;29.20;47.64;101335.66;4151613;28;20092;-68
2022/06/27 08:55:51;;;;;;;2.05;1.92;;;;;;;29.19;47.38;101329.19;4150997;28;20492;-68
2022/06/27 08:57:52;;;;;;;2.50;2.30;;;;;;;29.21;47.70;101335.31;4150312;28;20053;-68
2022/06/27 08:59:54;;;;;;;1.95;1.80;;;;;;;29.19;47.44;101346.09;4150649;28;20104;-68
2022/06/27 09:01:56;;;;;;;2.30;2.10;;;;;;;29.18;47.39;101341.59;4150948;28;20037;-68
2022/06/27 09:04:10;;;;;;;2.75;2.00;;;;;;;29.18;47.46;101341.59;4150981;28;20034;-68
2022/06/27 09:06:12;;;;;;;2.25;2.00;;;;;;;29.19;47.48;101339.66;4150616;28;20042;-68
2022/06/27 09:08:16;;;;;;;2.15;1.95;;;;;;;29.18;47.60;101338.78;4149962;28;20097;-68
2022/06/27 09:10:40;;;;;;;2.13;1.92;;;;;;;29.18;47.45;101337.97;4150183;28;20120;-68
2022/06/27 09:13:15;;;;;;;2.38;1.80;;;;;;;29.16;47.75;101332.66;4150365;28;20088;-68
2022/06/27 09:15:16;;;;;;;1.90;1.80;;;;;;;29.21;47.43;101340.13;4133149;28;20107;-68
2022/06/27 09:17:18;;;;;;;1.90;1.80;;;;;;;29.21;47.49;101342.94;4150336;28;20096;-68
2022/06/27 09:19:43;;;;;;;2.00;1.90;;;;;;;29.17;47.63;101341.94;4150125;28;20030;-68
2022/06/27 09:21:45;;;;;;;2.47;2.28;;;;;;;29.19;47.41;101334.84;4149852;28;20050;-68
2022/06/27 09:23:51;;;;;;;2.13;2.03;;;;;;;29.19;47.62;101346.09;4149780;28;20440;-68
2022/06/27 09:26:03;;;;;;;2.10;1.90;;;;;;;29.19;47.44;101346.09;4149877;28;20088;-68
2022/06/27 09:28:04;;;;;;;2.97;2.30;;;;;;;29.19;47.69;101345.28;4149898;28;20034;-68
2022/06/27 09:30:21;;;;;;;2.90;2.33;;;;;;;29.17;47.44;101342.78;4150348;28;20042;-67
2022/06/27 09:32:26;;;;;;;1.85;1.75;;;;;;;29.20;47.41;101346.94;4149908;28;20104;-68
2022/06/27 09:34:27;;;;;;;2.75;2.30;;;;;;;29.19;47.41;101334.84;4150167;28;20524;-68
2022/06/27 09:36:34;;;;;;;2.00;1.83;;;;;;;29.18;47.63;101333.16;4149872;28;20038;-68
2022/06/27 09:38:39;;;;;;;2.30;2.10;;;;;;;29.17;47.43;101331.50;4149710;28;20532;-68